This is the latest recevied weather packets stored in our database for station/object EA7RX-4. If no packets are shown the sender has not sent any weather packets the latest 10 day(s).
| Time | Temp. | Humidity | Pressure | Rain* | Wind** | Luminosity | Snow |
|---|---|---|---|---|---|---|---|
| 1787850603 | 19.44° C | 51% | 1014.6 hPa | 0 mm | - | 107 W/m² | - |
| 1787850003 | 19.44° C | 50% | 1014.6 hPa | 0 mm | - | 107 W/m² | - |
| 1787849403 | 19.44° C | 51% | 1014.5 hPa | 0 mm | - | 128 W/m² | - |
| 1787848803 | 19.44° C | 50% | 1014.5 hPa | 0 mm | - | 130 W/m² | - |
| 1787848203 | 19.44° C | 48% | 1014.5 hPa | 0 mm | - | 130 W/m² | - |
| 1787847603 | 19.44° C | 47% | 1014.8 hPa | 0 mm | - | 100 W/m² | - |
| 1787847003 | 19.44° C | 46% | 1014.5 hPa | 0 mm | - | 62 W/m² | - |
| 1787846403 | 20° C | 45% | 1014.5 hPa | 0 mm | - | 144 W/m² | - |
| 1787845803 | 19.44° C | 45% | 1014.2 hPa | 0 mm | - | 169 W/m² | - |
| 1787845203 | 20° C | 44% | 1014.4 hPa | 0 mm | - | 218 W/m² | - |
| 1787844603 | 20° C | 44% | 1014.4 hPa | 0 mm | - | 243 W/m² | - |
| 1787844003 | 20° C | 44% | 1014.4 hPa | 0 mm | - | 183 W/m² | - |
| 1787843403 | 20° C | 43% | 1014.4 hPa | 0 mm | - | 139 W/m² | - |
| 1787842803 | 21.11° C | 41% | 1014.3 hPa | 0 mm | - | 710 W/m² | - |
| 1787842203 | 21.11° C | 39% | 1014.3 hPa | 0 mm | - | 776 W/m² | - |
| 1787841603 | 20° C | 41% | 1014.3 hPa | 0 mm | - | 334 W/m² | - |
| 1787841003 | 20.56° C | 39% | 1014.2 hPa | 0 mm | - | 433 W/m² | - |
| 1787840403 | 20.56° C | 43% | 1014.3 hPa | 0 mm | - | 604 W/m² | - |
| 1787839803 | 19.44° C | 51% | 1014.2 hPa | 0 mm | - | 907 W/m² | - |
| 1787839203 | 20° C | 52% | 1014.3 hPa | 0 mm | - | 917 W/m² | - |
| 1787838603 | 19.44° C | 55% | 1014.3 hPa | 0 mm | - | 733 W/m² | - |
| 1787838003 | 18.89° C | 50% | 1014.4 hPa | 0 mm | - | 705 W/m² | - |
| 1787837403 | 18.89° C | 55% | 1014.6 hPa | 0 mm | - | 667 W/m² | - |
| 1787836803 | 18.33° C | 57% | 1014.3 hPa | 0 mm | - | 441 W/m² | - |
| 1787836203 | 18.33° C | 62% | 1014.3 hPa | 0 mm | - | 486 W/m² | - |
* Rain latest hour (hover to see other rain measurements)
** Current wind speed in m/s (hover to see current wind gust speed)